createdAt,value
2023-05-19T00:01:50.240Z,2.38
2023-05-19T00:04:52.202Z,2.45
2023-05-19T00:07:58.759Z,2.38
2023-05-19T00:11:01.895Z,2.45
2023-05-19T00:14:06.146Z,2.20
2023-05-19T00:17:08.642Z,2.35
2023-05-19T00:20:12.227Z,2.65
2023-05-19T00:23:13.945Z,2.60
2023-05-19T00:26:15.773Z,2.20
2023-05-19T00:29:26.612Z,2.20
2023-05-19T00:32:28.422Z,2.40
2023-05-19T00:35:30.406Z,2.72
2023-05-19T00:38:35.381Z,2.95
2023-05-19T00:41:37.216Z,2.28
2023-05-19T00:44:41.820Z,2.40
2023-05-19T00:47:43.898Z,2.53
2023-05-19T00:50:46.214Z,2.50
2023-05-19T00:53:51.089Z,2.65
2023-05-19T00:56:54.607Z,2.50
2023-05-19T00:59:56.595Z,2.50
2023-05-19T01:02:58.614Z,2.80
2023-05-19T01:06:05.083Z,2.35
2023-05-19T01:09:07.767Z,2.15
2023-05-19T01:12:09.741Z,2.38
2023-05-19T01:15:12.218Z,2.47
2023-05-19T01:18:24.774Z,2.50
2023-05-19T01:21:44.458Z,2.30
2023-05-19T01:24:58.448Z,2.60
2023-05-19T01:28:06.514Z,2.38
2023-05-19T01:34:14.690Z,2.28
2023-05-19T01:37:17.894Z,2.40
2023-05-19T01:40:23.000Z,2.28
2023-05-19T01:43:27.570Z,2.50
2023-05-19T01:46:29.391Z,2.30
2023-05-19T01:49:31.271Z,2.40
2023-05-19T01:52:33.158Z,2.60
2023-05-19T01:55:45.541Z,2.58
2023-05-19T01:58:53.046Z,2.40
2023-05-19T02:02:01.168Z,2.67
2023-05-19T02:05:40.747Z,2.35
2023-05-19T02:08:51.056Z,2.30
2023-05-19T02:12:01.174Z,2.55
2023-05-19T02:15:26.118Z,2.17
2023-05-19T02:18:30.024Z,2.47
2023-05-19T02:21:31.957Z,2.30
2023-05-19T02:24:33.778Z,2.70
2023-05-19T02:27:37.397Z,2.65
2023-05-19T02:30:39.126Z,2.50
2023-05-19T02:33:41.373Z,2.30
2023-05-19T02:36:43.756Z,2.70
2023-05-19T02:39:45.570Z,2.60
2023-05-19T02:42:47.440Z,2.47
2023-05-19T02:45:49.242Z,2.55
2023-05-19T02:48:51.520Z,2.88
2023-05-19T02:51:53.436Z,2.67
2023-05-19T02:54:55.111Z,2.67
2023-05-19T02:57:56.892Z,2.70
2023-05-19T03:00:58.665Z,2.47
2023-05-19T03:04:00.740Z,2.90
2023-05-19T03:07:03.361Z,2.80
2023-05-19T03:10:06.818Z,2.92
2023-05-19T03:13:08.601Z,2.53
2023-05-19T03:16:10.434Z,2.42
2023-05-19T03:19:12.214Z,2.30
2023-05-19T03:22:14.003Z,2.55
2023-05-19T03:25:15.844Z,2.33
2023-05-19T03:28:17.682Z,2.28
2023-05-19T03:31:19.487Z,2.72
2023-05-19T03:34:22.483Z,2.65
2023-05-19T03:37:25.290Z,2.50
2023-05-19T03:40:27.188Z,2.53
2023-05-19T03:43:35.901Z,2.30
2023-05-19T03:46:39.965Z,2.20
2023-05-19T03:50:01.235Z,2.13
2023-05-19T03:53:26.609Z,2.20
2023-05-19T03:56:28.832Z,2.38
2023-05-19T03:59:31.397Z,2.20
2023-05-19T04:02:33.301Z,2.00
2023-05-19T04:05:35.241Z,1.90
2023-05-19T04:08:36.977Z,2.35
2023-05-19T04:11:39.787Z,2.20
2023-05-19T04:14:41.580Z,2.20
2023-05-19T04:17:45.226Z,2.72
2023-05-19T04:20:47.206Z,2.45
2023-05-19T04:23:49.034Z,2.00
2023-05-19T04:26:50.993Z,2.10
2023-05-19T04:29:54.824Z,2.40
2023-05-19T04:32:58.236Z,1.80
2023-05-19T04:36:05.525Z,2.30
2023-05-19T04:39:10.089Z,2.17
2023-05-19T04:42:13.900Z,2.05
2023-05-19T04:45:15.739Z,4.00
2023-05-19T04:48:24.361Z,2.35
2023-05-19T04:51:30.273Z,2.20
2023-05-19T04:54:35.735Z,2.22
2023-05-19T04:57:38.935Z,2.40
2023-05-19T05:00:41.965Z,2.15
2023-05-19T05:03:44.660Z,2.08
2023-05-19T05:06:48.145Z,2.00
2023-05-19T05:09:50.505Z,2.05
2023-05-19T05:12:52.701Z,2.63
2023-05-19T05:15:56.247Z,2.10
2023-05-19T05:18:58.376Z,1.80
2023-05-19T05:22:00.664Z,1.80
2023-05-19T05:25:03.444Z,2.00
2023-05-19T05:28:06.004Z,2.00
2023-05-19T05:31:10.143Z,2.00
2023-05-19T05:34:12.402Z,1.80
2023-05-19T05:37:15.508Z,2.03
2023-05-19T05:40:17.882Z,2.15
2023-05-19T05:43:19.958Z,2.03
2023-05-19T05:46:28.083Z,1.83
2023-05-19T05:49:30.976Z,1.60
2023-05-19T05:52:34.576Z,1.80
2023-05-19T05:55:36.735Z,1.70
2023-05-19T05:58:40.786Z,1.70
2023-05-19T06:01:44.050Z,1.80
2023-05-19T06:04:46.625Z,1.92
2023-05-19T06:07:48.441Z,1.77
2023-05-19T06:10:55.902Z,1.70
2023-05-19T06:13:58.075Z,1.98
2023-05-19T06:17:26.293Z,2.08
2023-05-19T06:20:28.111Z,1.83
2023-05-19T06:23:31.313Z,2.00
2023-05-19T06:26:33.166Z,1.83
2023-05-19T06:29:35.646Z,1.92
2023-05-19T06:32:42.612Z,1.73
2023-05-19T06:35:44.575Z,2.20
2023-05-19T06:38:46.454Z,1.85
2023-05-19T06:41:48.552Z,1.75
2023-05-19T06:45:10.869Z,1.80
2023-05-19T06:48:13.476Z,2.20
2023-05-19T06:51:21.669Z,1.80
2023-05-19T06:54:26.828Z,1.63
2023-05-19T06:57:28.781Z,1.80
2023-05-19T07:00:32.453Z,2.38
2023-05-19T07:03:35.858Z,1.65
2023-05-19T07:06:38.523Z,1.80
2023-05-19T07:09:41.035Z,1.83
2023-05-19T07:12:43.230Z,1.80
2023-05-19T07:15:45.277Z,2.10
2023-05-19T07:18:47.587Z,1.60
2023-05-19T07:21:49.700Z,1.80
2023-05-19T07:24:51.526Z,2.17
2023-05-19T07:27:53.413Z,2.47
2023-05-19T07:30:55.243Z,2.20
2023-05-19T07:33:57.865Z,2.28
2023-05-19T07:36:59.575Z,1.73
2023-05-19T07:40:01.393Z,2.20
2023-05-19T07:43:03.218Z,2.28
2023-05-19T07:46:06.185Z,1.70
2023-05-19T07:49:07.998Z,1.98
2023-05-19T07:52:09.736Z,1.88
2023-05-19T07:55:13.635Z,1.92
2023-05-19T07:58:15.709Z,1.80
2023-05-19T08:01:17.446Z,2.03
2023-05-19T08:04:19.261Z,1.88
2023-05-19T08:07:21.125Z,2.03
2023-05-19T08:10:22.898Z,2.25
2023-05-19T08:13:24.710Z,2.33
2023-05-19T08:16:26.889Z,2.30
2023-05-19T08:19:28.814Z,2.00
2023-05-19T08:22:30.784Z,2.10
2023-05-19T08:25:32.799Z,2.00
2023-05-19T08:28:34.605Z,2.20
2023-05-19T08:31:36.656Z,2.42
2023-05-19T08:34:38.389Z,2.38
2023-05-19T08:37:40.996Z,2.10
2023-05-19T08:40:43.533Z,2.40
2023-05-19T08:43:45.541Z,2.30
2023-05-19T08:46:48.141Z,2.45
2023-05-19T08:49:53.108Z,2.47
2023-05-19T08:53:34.092Z,2.25
2023-05-19T08:56:37.805Z,2.65
2023-05-19T08:59:41.131Z,2.50
2023-05-19T09:02:50.776Z,2.20
2023-05-19T09:06:04.147Z,2.40
2023-05-19T09:09:06.348Z,2.20
2023-05-19T09:12:08.327Z,2.00
2023-05-19T09:15:10.894Z,2.35
2023-05-19T09:18:15.174Z,2.60
2023-05-19T09:21:17.681Z,2.45
2023-05-19T09:24:19.792Z,2.35
2023-05-19T09:27:25.333Z,2.35
2023-05-19T09:30:27.181Z,2.60
2023-05-19T09:33:30.062Z,2.40
2023-05-19T09:36:32.274Z,2.70
2023-05-19T09:39:34.502Z,2.40
2023-05-19T09:42:40.736Z,2.40
2023-05-19T09:45:42.760Z,3.00
2023-05-19T09:48:44.966Z,2.50
2023-05-19T09:51:49.053Z,2.92
2023-05-19T09:54:51.949Z,2.17
2023-05-19T09:57:56.609Z,2.65
2023-05-19T10:00:59.521Z,2.60
2023-05-19T10:04:01.900Z,3.00
2023-05-19T10:07:06.207Z,2.63
2023-05-19T10:10:14.095Z,2.75
2023-05-19T10:13:16.686Z,2.60
2023-05-19T10:16:21.870Z,2.42
2023-05-19T10:19:25.633Z,2.75
2023-05-19T10:22:28.521Z,2.65
2023-05-19T10:25:35.490Z,2.83
2023-05-19T10:28:41.160Z,2.70
2023-05-19T10:31:44.650Z,2.75
2023-05-19T10:35:14.112Z,2.33
2023-05-19T10:38:34.120Z,2.53
2023-05-19T10:42:13.922Z,2.65
2023-05-19T10:45:22.441Z,2.90
2023-05-19T10:48:24.630Z,2.63
2023-05-19T10:51:33.361Z,2.90
2023-05-19T10:54:47.429Z,3.30
2023-05-19T10:57:58.605Z,2.53
2023-05-19T11:01:01.600Z,2.70
2023-05-19T11:04:09.361Z,2.65
2023-05-19T11:07:15.589Z,3.08
2023-05-19T11:10:23.424Z,2.97
2023-05-19T11:13:28.526Z,3.25
2023-05-19T11:16:32.531Z,2.80
2023-05-19T11:19:37.172Z,2.90
2023-05-19T11:22:40.088Z,2.50
2023-05-19T11:25:50.014Z,2.60
2023-05-19T11:28:52.169Z,2.60
2023-05-19T11:31:54.599Z,2.70
2023-05-19T11:34:57.675Z,3.05
2023-05-19T11:37:59.594Z,2.70
2023-05-19T11:41:01.561Z,2.90
2023-05-19T11:44:03.397Z,2.80
2023-05-19T11:47:05.912Z,2.83
2023-05-19T11:50:12.763Z,2.88
2023-05-19T11:53:16.589Z,2.92
2023-05-19T11:56:18.322Z,2.92
2023-05-19T11:59:32.763Z,3.20
2023-05-19T12:02:36.378Z,3.20
2023-05-19T12:05:44.922Z,3.22
2023-05-19T12:08:47.097Z,3.00
2023-05-19T12:11:49.902Z,3.33
2023-05-19T12:14:53.615Z,3.30
2023-05-19T12:18:00.569Z,3.22
2023-05-19T12:21:02.917Z,3.65
2023-05-19T12:24:06.115Z,3.22
2023-05-19T12:27:19.605Z,3.25
2023-05-19T12:30:29.024Z,3.47
2023-05-19T12:33:34.915Z,3.50
2023-05-19T12:36:41.449Z,3.22
2023-05-19T12:39:44.125Z,3.20
2023-05-19T12:42:46.282Z,3.08
2023-05-19T12:45:48.565Z,3.45
2023-05-19T12:48:50.956Z,3.30
2023-05-19T12:51:53.949Z,3.75
2023-05-19T12:55:14.783Z,3.47
2023-05-19T12:58:17.008Z,3.50
2023-05-19T13:01:18.936Z,3.03
2023-05-19T13:04:20.858Z,3.45
2023-05-19T13:07:22.621Z,3.35
2023-05-19T13:10:27.106Z,3.30
2023-05-19T13:13:29.138Z,3.40
2023-05-19T13:16:30.910Z,3.20
2023-05-19T13:19:32.910Z,3.22
2023-05-19T13:22:34.710Z,3.20
2023-05-19T13:25:36.872Z,3.83
2023-05-19T13:28:38.669Z,3.15
2023-05-19T13:31:40.526Z,3.40
2023-05-19T13:34:42.496Z,3.13
2023-05-19T13:37:44.774Z,3.53
2023-05-19T13:40:46.779Z,3.30
2023-05-19T13:43:48.498Z,3.53
2023-05-19T13:46:52.305Z,3.10
2023-05-19T13:49:54.312Z,3.53
2023-05-19T13:52:56.119Z,3.15
2023-05-19T13:55:57.911Z,3.13
2023-05-19T13:58:59.747Z,3.03
2023-05-19T14:02:02.961Z,3.17
2023-05-19T14:05:06.275Z,3.40
2023-05-19T14:08:08.095Z,3.53
2023-05-19T14:11:09.823Z,3.15
2023-05-19T14:14:11.791Z,3.20
2023-05-19T14:17:13.576Z,3.03
2023-05-19T14:20:15.522Z,3.20
2023-05-19T14:23:17.319Z,3.85
2023-05-19T14:26:19.829Z,4.20
2023-05-19T14:29:21.643Z,3.90
2023-05-19T14:32:23.589Z,3.97
2023-05-19T14:35:25.536Z,3.97
2023-05-19T14:38:27.665Z,3.97
2023-05-19T14:41:31.074Z,3.92
2023-05-19T14:44:33.262Z,4.00
2023-05-19T14:47:35.040Z,3.80
2023-05-19T14:50:36.818Z,4.30
2023-05-19T14:53:38.587Z,3.97
2023-05-19T14:56:40.395Z,5.30
2023-05-19T14:59:42.185Z,4.55
2023-05-19T15:02:44.174Z,4.70
2023-05-19T15:05:45.972Z,4.38
2023-05-19T15:08:47.818Z,4.63
2023-05-19T15:11:52.258Z,4.95
2023-05-19T15:14:54.013Z,5.03
2023-05-19T15:17:55.941Z,5.72
2023-05-19T15:20:57.733Z,4.22
2023-05-19T15:23:59.470Z,5.25
2023-05-19T15:27:01.878Z,4.78
2023-05-19T15:30:05.207Z,5.00
2023-05-19T15:33:07.043Z,4.57
2023-05-19T15:36:08.936Z,4.60
2023-05-19T15:39:10.846Z,4.95
2023-05-19T15:42:12.611Z,4.53
2023-05-19T15:45:14.510Z,4.25
2023-05-19T15:48:16.375Z,4.78
2023-05-19T15:51:18.166Z,4.22
2023-05-19T15:54:20.026Z,5.00
2023-05-19T15:57:21.819Z,4.45
2023-05-19T16:00:23.711Z,4.60
2023-05-19T16:03:25.790Z,4.60
2023-05-19T16:06:27.875Z,4.10
2023-05-19T16:09:29.644Z,4.30
2023-05-19T16:12:31.662Z,3.92
2023-05-19T16:15:33.474Z,3.90
2023-05-19T16:18:35.405Z,3.78
2023-05-19T16:21:37.121Z,3.53
2023-05-19T16:24:38.875Z,3.78
2023-05-19T16:27:40.618Z,3.75
2023-05-19T16:30:43.035Z,3.80
2023-05-19T16:33:44.850Z,4.00
2023-05-19T16:36:46.466Z,4.25
2023-05-19T16:39:48.473Z,3.97
2023-05-19T16:42:52.871Z,4.55
2023-05-19T16:45:54.642Z,4.63
2023-05-19T16:48:56.514Z,3.80
2023-05-19T16:51:58.278Z,3.88
2023-05-19T16:55:00.039Z,4.95
2023-05-19T16:58:01.832Z,4.22
2023-05-19T17:01:04.211Z,4.70
2023-05-19T17:04:05.987Z,3.92
2023-05-19T17:07:07.813Z,3.80
2023-05-19T17:10:10.535Z,3.70
2023-05-19T17:13:12.536Z,4.50
2023-05-19T17:16:14.593Z,4.78
2023-05-19T17:19:16.917Z,4.20
2023-05-19T17:22:19.461Z,4.30
2023-05-19T17:25:21.436Z,4.38
2023-05-19T17:28:23.539Z,5.10
2023-05-19T17:31:25.245Z,4.20
2023-05-19T17:34:27.092Z,4.28
2023-05-19T17:37:29.098Z,4.20
2023-05-19T17:40:31.207Z,3.92
2023-05-19T17:43:33.055Z,3.90
2023-05-19T17:46:34.928Z,3.70
2023-05-19T17:49:36.724Z,3.60
2023-05-19T17:52:40.054Z,5.50
2023-05-19T17:55:43.967Z,3.97
2023-05-19T17:58:47.081Z,4.00
2023-05-19T18:01:49.046Z,3.88
2023-05-19T18:04:51.222Z,4.18
2023-05-19T18:07:54.235Z,4.00
2023-05-19T18:10:57.126Z,4.10
2023-05-19T18:13:58.850Z,3.65
2023-05-19T18:17:00.842Z,4.55
2023-05-19T18:20:02.904Z,4.63
2023-05-19T18:23:05.507Z,4.35
2023-05-19T18:26:07.438Z,5.32
2023-05-19T18:29:14.615Z,5.78
2023-05-19T18:32:17.767Z,5.47
2023-05-19T18:35:21.183Z,4.53
2023-05-19T18:38:25.882Z,4.93
2023-05-19T18:41:28.483Z,4.43
2023-05-19T18:44:30.241Z,3.88
2023-05-19T18:47:32.038Z,4.00
2023-05-19T18:50:34.405Z,4.13
2023-05-19T18:53:37.217Z,4.00
2023-05-19T18:56:39.300Z,3.90
2023-05-19T18:59:41.302Z,3.30
2023-05-19T19:02:43.164Z,3.38
2023-05-19T19:05:44.886Z,3.42
2023-05-19T19:08:47.376Z,3.47
2023-05-19T19:11:49.129Z,3.85
2023-05-19T19:14:51.272Z,4.00
2023-05-19T19:17:53.101Z,3.97
2023-05-19T19:20:57.403Z,3.95
2023-05-19T19:23:59.241Z,4.30
2023-05-19T19:27:01.174Z,4.28
2023-05-19T19:30:03.163Z,4.18
2023-05-19T19:33:06.724Z,4.07
2023-05-19T19:36:09.492Z,4.40
2023-05-19T19:39:13.060Z,4.68
2023-05-19T19:42:14.867Z,4.30
2023-05-19T19:45:17.928Z,3.90
2023-05-19T19:48:19.633Z,4.47
2023-05-19T19:51:21.384Z,3.85
2023-05-19T19:54:23.186Z,4.43
2023-05-19T19:57:25.008Z,4.47
2023-05-19T20:00:26.750Z,4.40
2023-05-19T20:03:29.196Z,4.20
2023-05-19T20:06:32.292Z,5.40
2023-05-19T20:09:34.046Z,4.07
2023-05-19T20:12:36.867Z,4.25
2023-05-19T20:15:39.063Z,4.25
2023-05-19T20:18:40.929Z,4.30
2023-05-19T20:21:42.722Z,4.15
2023-05-19T20:24:44.502Z,4.15
2023-05-19T20:27:46.277Z,4.55
2023-05-19T20:30:47.974Z,4.38
2023-05-19T20:33:50.318Z,4.22
2023-05-19T20:36:52.072Z,4.82
2023-05-19T20:39:54.051Z,4.13
2023-05-19T20:42:55.802Z,4.45
2023-05-19T20:45:57.548Z,4.28
2023-05-19T20:48:59.344Z,4.45
2023-05-19T20:52:01.381Z,4.50
2023-05-19T20:55:03.334Z,4.88
2023-05-19T20:58:05.130Z,4.50
2023-05-19T21:01:06.912Z,5.10
2023-05-19T21:04:08.755Z,4.75
2023-05-19T21:07:10.562Z,4.72
2023-05-19T21:10:14.524Z,4.88
2023-05-19T21:13:17.952Z,5.10
2023-05-19T21:16:20.119Z,5.13
2023-05-19T21:19:22.998Z,4.80
2023-05-19T21:22:25.656Z,4.80
2023-05-19T21:25:27.967Z,5.30
2023-05-19T21:28:30.130Z,5.45
2023-05-19T21:31:32.157Z,6.28
2023-05-19T21:34:34.146Z,5.28
2023-05-19T21:37:36.495Z,5.65
2023-05-19T21:40:38.252Z,5.50
2023-05-19T21:43:42.083Z,5.40
2023-05-19T21:46:44.030Z,5.28
2023-05-19T21:49:45.795Z,6.50
2023-05-19T21:52:47.559Z,5.30
2023-05-19T21:55:49.581Z,5.50
2023-05-19T21:58:51.662Z,5.40
2023-05-19T22:01:53.537Z,6.22
2023-05-19T22:04:55.291Z,5.15
2023-05-19T22:07:57.044Z,5.72
2023-05-19T22:10:58.782Z,5.57
2023-05-19T22:14:00.539Z,5.68
2023-05-19T22:17:02.281Z,5.70
2023-05-19T22:20:04.440Z,5.20
2023-05-19T22:23:06.271Z,5.72
2023-05-19T22:26:08.011Z,5.35
2023-05-19T22:29:15.111Z,5.78
2023-05-19T22:32:18.442Z,5.78
2023-05-19T22:35:20.248Z,5.45
2023-05-19T22:38:22.003Z,5.50
2023-05-19T22:41:23.888Z,6.05
2023-05-19T22:44:25.615Z,5.55
2023-05-19T22:47:27.466Z,5.63
2023-05-19T22:50:29.272Z,5.95
2023-05-19T22:53:31.106Z,6.00
2023-05-19T22:56:32.850Z,5.93
2023-05-19T22:59:35.680Z,6.60
2023-05-19T23:02:37.577Z,5.72
2023-05-19T23:05:40.257Z,6.60
2023-05-19T23:08:42.120Z,6.43
2023-05-19T23:11:44.660Z,6.28
2023-05-19T23:14:46.426Z,6.15
2023-05-19T23:17:48.169Z,6.35
2023-05-19T23:20:49.984Z,6.05
2023-05-19T23:23:52.061Z,6.30
2023-05-19T23:26:54.260Z,6.22
2023-05-19T23:29:56.025Z,6.35
2023-05-19T23:32:57.842Z,6.00
2023-05-19T23:35:59.859Z,5.95
2023-05-19T23:39:01.615Z,6.80
2023-05-19T23:42:03.555Z,5.93
2023-05-19T23:45:06.025Z,6.07
2023-05-19T23:48:07.891Z,6.80
2023-05-19T23:51:09.745Z,6.32
2023-05-19T23:54:11.580Z,6.43
2023-05-19T23:57:13.412Z,6.07
